createdAt,value
2019-02-08T00:01:12.916Z,99624.83
2019-02-08T00:04:11.787Z,99626.42
2019-02-08T00:06:35.356Z,99626.42
2019-02-08T00:09:24.780Z,99629.06
2019-02-08T00:12:01.253Z,99622.45
2019-02-08T00:14:50.338Z,99623.77
2019-02-08T00:17:36.810Z,99619.07
2019-02-08T00:20:23.262Z,99619.07
2019-02-08T00:22:51.000Z,99625.79
2019-02-08T00:25:39.075Z,99624.47
2019-02-08T00:28:06.813Z,99629.86
2019-02-08T00:30:34.573Z,99626.75
2019-02-08T00:33:21.042Z,99624.96
2019-02-08T00:35:48.733Z,99628.08
2019-02-08T00:38:16.500Z,99628.08
2019-02-08T00:41:02.978Z,99635.55
2019-02-08T00:43:30.578Z,99635.55
2019-02-08T00:45:59.901Z,99635.55
2019-02-08T00:48:46.371Z,99631.58
2019-02-08T00:54:06.871Z,99631.05
2019-02-08T00:56:34.532Z,99631.05
2019-02-08T00:59:02.194Z,99629.00
2019-02-08T01:01:29.887Z,99632.97
2019-02-08T01:04:16.395Z,99630.42
2019-02-08T01:09:52.354Z,99638.83
2019-02-08T01:12:21.646Z,99638.83
2019-02-08T01:14:49.399Z,99637.14
2019-02-08T01:17:35.862Z,99639.52
2019-02-08T01:20:04.049Z,99639.16
2019-02-08T01:22:33.347Z,99639.16
2019-02-08T01:25:19.862Z,99635.32
2019-02-08T01:27:47.655Z,99633.59
2019-02-08T01:30:34.108Z,99639.98
2019-02-08T01:33:02.131Z,99639.98
2019-02-08T01:35:29.790Z,99639.48
2019-02-08T01:38:16.281Z,99639.48
2019-02-08T01:40:43.946Z,99644.78
2019-02-08T01:43:11.606Z,99648.75
2019-02-08T01:45:58.460Z,99637.80
2019-02-08T01:48:44.936Z,99639.48
2019-02-08T01:51:12.657Z,99639.48
2019-02-08T01:53:59.139Z,99632.14
2019-02-08T01:56:29.265Z,99641.60
2019-02-08T01:59:16.039Z,99631.47
2019-02-08T02:01:43.779Z,99631.47
2019-02-08T02:06:59.394Z,99628.84
2019-02-08T02:09:45.848Z,99628.67
2019-02-08T02:14:47.556Z,99633.79
2019-02-08T02:17:56.677Z,99627.08
2019-02-08T02:20:22.538Z,99627.08
2019-02-08T02:23:09.230Z,99629.72
2019-02-08T02:25:38.944Z,99629.72
2019-02-08T02:28:25.393Z,99637.56
2019-02-08T02:31:11.867Z,99628.20
2019-02-08T02:36:27.641Z,99631.31
2019-02-08T02:39:14.075Z,99634.42
2019-02-08T02:42:02.435Z,99628.67
2019-02-08T02:47:35.267Z,99643.69
2019-02-08T02:50:17.065Z,99643.69
2019-02-08T02:52:32.254Z,99640.67
2019-02-08T02:55:01.652Z,99643.32
2019-02-08T02:57:48.397Z,99641.80
2019-02-08T03:00:16.119Z,99641.80
2019-02-08T03:03:02.979Z,99638.66
2019-02-08T03:05:31.120Z,99638.66
2019-02-08T03:08:17.922Z,99637.97
2019-02-08T03:10:47.177Z,99637.97
2019-02-08T03:13:33.937Z,99637.15
2019-02-08T03:16:20.453Z,99633.64
2019-02-08T03:18:48.305Z,99633.64
2019-02-08T03:21:35.043Z,99632.31
2019-02-08T03:24:02.779Z,99627.98
2019-02-08T03:26:30.648Z,99637.34
2019-02-08T03:29:18.000Z,99627.71
2019-02-08T03:32:04.446Z,99629.72
2019-02-08T03:34:51.230Z,99620.64
2019-02-08T03:39:53.260Z,99618.83
2019-02-08T03:42:21.011Z,99618.83
2019-02-08T03:45:07.502Z,99615.55
2019-02-08T03:47:35.292Z,99616.78
2019-02-08T03:50:02.972Z,99616.78
2019-02-08T03:52:49.498Z,99614.05
2019-02-08T03:55:35.985Z,99613.63
2019-02-08T03:58:22.721Z,99625.53
2019-02-08T04:01:10.886Z,99614.78
2019-02-08T04:03:40.248Z,99616.32
2019-02-08T04:06:26.734Z,99616.05
2019-02-08T04:08:54.368Z,99616.05
2019-02-08T04:11:22.149Z,99624.47
2019-02-08T04:14:08.573Z,99605.56
2019-02-08T04:16:55.065Z,99602.13
2019-02-08T04:19:22.794Z,99602.13
2019-02-08T04:22:09.290Z,99606.31
2019-02-08T04:24:55.804Z,99605.88
2019-02-08T04:27:42.294Z,99597.48
2019-02-08T04:30:09.976Z,99597.48
2019-02-08T04:32:56.438Z,99593.89
2019-02-08T04:35:42.959Z,99589.83
2019-02-08T04:38:10.649Z,99589.83
2019-02-08T04:40:58.174Z,99591.42
2019-02-08T04:43:44.673Z,99594.95
2019-02-08T04:46:31.138Z,99594.95
2019-02-08T04:48:58.848Z,99591.25
2019-02-08T04:51:28.244Z,99586.73
2019-02-08T04:54:14.718Z,99593.39
2019-02-08T04:59:49.171Z,99591.58
2019-02-08T05:02:16.944Z,99580.36
2019-02-08T05:04:44.724Z,99586.51
2019-02-08T05:07:31.187Z,99581.48
2019-02-08T05:10:00.830Z,99579.94
2019-02-08T05:12:28.580Z,99579.94
2019-02-08T05:14:56.354Z,99575.06
2019-02-08T05:17:42.833Z,99575.06
2019-02-08T05:20:29.286Z,99562.47
2019-02-08T05:23:15.799Z,99562.47
2019-02-08T05:28:31.462Z,99550.38
2019-02-08T05:31:17.879Z,99563.28
2019-02-08T05:33:45.622Z,99563.05
2019-02-08T05:36:32.103Z,99560.31
2019-02-08T05:39:18.630Z,99557.94
2019-02-08T05:42:05.086Z,99557.94
2019-02-08T05:44:32.799Z,99557.94
2019-02-08T05:47:19.290Z,99574.91
2019-02-08T05:50:05.778Z,99557.83
2019-02-08T05:52:52.211Z,99557.83
2019-02-08T05:58:12.902Z,99559.22
2019-02-08T06:03:49.775Z,99556.95
2019-02-08T06:06:36.271Z,99547.06
2019-02-08T06:09:22.837Z,99547.06
2019-02-08T06:11:50.613Z,99541.50
2019-02-08T06:14:37.042Z,99551.08
2019-02-08T06:17:07.232Z,99544.66
2019-02-08T06:19:55.351Z,99545.42
2019-02-08T06:22:35.714Z,99553.03
2019-02-08T06:27:30.844Z,99545.45
2019-02-08T06:30:17.310Z,99545.45
2019-02-08T06:32:45.004Z,99551.97
2019-02-08T06:35:31.535Z,99547.41
2019-02-08T06:37:59.191Z,99553.16
2019-02-08T06:40:47.341Z,99544.67
2019-02-08T06:43:33.824Z,99538.55
2019-02-08T06:46:20.316Z,99538.55
2019-02-08T06:48:47.970Z,99535.12
2019-02-08T06:51:34.440Z,99539.81
2019-02-08T06:54:13.932Z,99549.97
2019-02-08T06:56:50.214Z,99550.70
2019-02-08T06:59:36.696Z,99547.49
2019-02-08T07:02:23.551Z,99547.49
2019-02-08T07:05:10.061Z,99545.67
2019-02-08T07:07:56.534Z,99549.68
2019-02-08T07:10:42.960Z,99549.68
2019-02-08T07:13:29.486Z,99552.95
2019-02-08T07:16:15.941Z,99585.88
2019-02-08T07:19:02.480Z,99560.86
2019-02-08T07:21:48.913Z,99560.86
2019-02-08T07:24:35.425Z,99564.27
2019-02-08T07:38:09.266Z,99556.25
2019-02-08T07:40:55.773Z,99560.35
2019-02-08T07:43:42.230Z,99561.94
2019-02-08T07:46:30.958Z,99561.94
2019-02-08T07:49:03.327Z,99572.44
2019-02-08T07:51:49.815Z,99559.31
2019-02-08T07:54:36.355Z,99556.93
2019-02-08T07:57:22.797Z,99556.93
2019-02-08T08:00:09.307Z,99554.31
2019-02-08T08:02:55.887Z,99554.73
2019-02-08T08:05:42.343Z,99561.39
2019-02-08T08:08:28.818Z,99549.13
2019-02-08T08:11:15.308Z,99540.22
2019-02-08T08:14:01.805Z,99540.22
2019-02-08T08:16:48.390Z,99547.23
2019-02-08T08:19:34.843Z,99554.22
2019-02-08T08:22:21.354Z,99555.06
2019-02-08T08:25:07.840Z,99550.38
2019-02-08T08:27:54.345Z,99550.38
2019-02-08T08:30:41.670Z,99556.30
2019-02-08T08:36:05.863Z,99553.20
2019-02-08T08:38:35.423Z,99543.92
2019-02-08T08:41:21.924Z,99543.92
2019-02-08T08:43:49.598Z,99549.83
2019-02-08T08:49:09.143Z,99548.41
2019-02-08T08:51:36.813Z,99546.02
2019-02-08T08:54:23.242Z,99521.30
2019-02-08T08:57:09.738Z,99538.17
2019-02-08T08:59:56.188Z,99538.17
2019-02-08T09:02:24.305Z,99535.94
2019-02-08T09:05:10.828Z,99535.94
2019-02-08T09:07:38.572Z,99535.34
2019-02-08T09:10:25.048Z,99543.37
2019-02-08T09:12:52.738Z,99538.33
2019-02-08T09:15:39.240Z,99524.59
2019-02-08T09:18:06.867Z,99537.47
2019-02-08T09:20:53.368Z,99535.78
2019-02-08T09:23:21.067Z,99535.78
2019-02-08T09:25:49.916Z,99531.13
2019-02-08T09:28:18.203Z,99531.13
2019-02-08T09:30:48.863Z,99546.54
2019-02-08T09:33:35.375Z,99523.41
2019-02-08T09:38:55.209Z,99516.64
2019-02-08T09:41:36.925Z,99507.84
2019-02-08T09:44:11.074Z,99507.84
2019-02-08T09:46:57.514Z,99502.89
2019-02-08T09:49:56.095Z,99502.89
2019-02-08T09:52:13.395Z,99503.24
2019-02-08T09:54:59.912Z,99503.24
2019-02-08T09:57:27.589Z,99528.44
2019-02-08T10:02:49.285Z,99503.83
2019-02-08T10:05:17.032Z,99503.83
2019-02-08T10:08:05.454Z,99498.63
2019-02-08T10:13:25.027Z,99495.91
2019-02-08T10:16:11.518Z,99493.13
2019-02-08T10:18:58.324Z,99494.11
2019-02-08T10:21:26.057Z,99494.11
2019-02-08T10:23:53.757Z,99490.86
2019-02-08T10:26:40.258Z,99492.23
2019-02-08T10:29:08.116Z,99492.23
2019-02-08T10:31:35.968Z,99490.44
2019-02-08T10:34:24.344Z,99481.05
2019-02-08T10:37:10.847Z,99470.09
2019-02-08T10:39:57.827Z,99470.09
2019-02-08T10:42:26.676Z,99475.50
2019-02-08T10:45:13.189Z,99468.60
2019-02-08T10:47:42.647Z,99468.60
2019-02-08T10:50:10.507Z,99465.24
2019-02-08T10:52:56.961Z,99464.68
2019-02-08T10:58:16.103Z,99470.37
2019-02-08T11:00:43.941Z,99470.37
2019-02-08T11:03:30.498Z,99479.48
2019-02-08T11:05:58.378Z,99479.76
2019-02-08T11:08:57.063Z,99474.98
2019-02-08T11:11:34.206Z,99463.83
2019-02-08T11:14:20.696Z,99463.83
2019-02-08T11:16:48.578Z,99458.23
2019-02-08T11:19:35.084Z,99451.16
2019-02-08T11:22:21.602Z,99445.63
2019-02-08T11:25:08.107Z,99432.85
2019-02-08T11:27:54.677Z,99436.48
2019-02-08T11:30:41.113Z,99436.48
2019-02-08T11:33:08.985Z,99417.27
2019-02-08T11:35:55.384Z,99419.62
2019-02-08T11:40:56.118Z,99405.70
2019-02-08T11:43:44.457Z,99396.47
2019-02-08T11:46:30.915Z,99386.67
2019-02-08T11:49:17.799Z,99376.84
2019-02-08T11:54:37.443Z,99367.45
2019-02-08T11:59:38.631Z,99366.56
2019-02-08T12:02:25.146Z,99366.76
2019-02-08T12:05:11.651Z,99361.94
2019-02-08T12:07:58.100Z,99361.94
2019-02-08T12:10:44.626Z,99364.83
2019-02-08T12:13:31.073Z,99351.42
2019-02-08T12:16:01.037Z,99362.31
2019-02-08T12:18:30.967Z,99362.31
2019-02-08T12:21:17.487Z,99349.26
2019-02-08T12:23:45.546Z,99366.27
2019-02-08T12:26:37.929Z,99340.90
2019-02-08T12:29:21.799Z,99325.74
2019-02-08T12:32:08.292Z,99325.74
2019-02-08T12:37:41.228Z,99314.20
2019-02-08T12:40:08.881Z,99312.11
2019-02-08T12:42:55.774Z,99296.59
2019-02-08T12:45:23.418Z,99296.59
2019-02-08T12:48:09.893Z,99303.11
2019-02-08T12:51:02.735Z,99297.58
2019-02-08T12:53:28.159Z,99310.95
2019-02-08T12:56:17.093Z,99283.99
2019-02-08T12:59:03.617Z,99283.99
2019-02-08T13:01:37.561Z,99303.03
2019-02-08T13:04:19.427Z,99282.28
2019-02-08T13:06:47.273Z,99288.88
2019-02-08T13:09:36.038Z,99278.61
2019-02-08T13:12:05.356Z,99281.10
2019-02-08T13:14:51.882Z,99264.13
2019-02-08T13:17:38.337Z,99261.11
2019-02-08T13:20:24.843Z,99261.11
2019-02-08T13:22:54.919Z,99261.02
2019-02-08T13:25:41.398Z,99251.06
2019-02-08T13:31:13.344Z,99245.47
2019-02-08T13:33:32.149Z,99240.09
2019-02-08T13:36:18.622Z,99231.23
2019-02-08T13:38:46.797Z,99241.02
2019-02-08T13:41:14.703Z,99239.21
2019-02-08T13:43:42.443Z,99239.21
2019-02-08T13:46:10.083Z,99239.08
2019-02-08T13:48:38.082Z,99253.84
2019-02-08T13:51:05.722Z,99218.81
2019-02-08T13:53:33.355Z,99218.81
2019-02-08T13:56:03.112Z,99240.60
2019-02-08T13:58:34.115Z,99233.86
2019-02-08T14:01:01.793Z,99230.53
2019-02-08T14:03:31.287Z,99226.34
2019-02-08T14:06:01.104Z,99227.50
2019-02-08T14:08:28.794Z,99227.50
2019-02-08T14:11:02.372Z,99230.86
2019-02-08T14:13:40.362Z,99230.86
2019-02-08T14:16:06.324Z,99239.36
2019-02-08T14:18:33.969Z,99225.08
2019-02-08T14:21:03.913Z,99233.57
2019-02-08T14:23:32.020Z,99218.27
2019-02-08T14:25:59.645Z,99218.27
2019-02-08T14:28:27.293Z,99219.30
2019-02-08T14:30:55.428Z,99213.41
2019-02-08T14:33:30.625Z,99201.74
2019-02-08T14:35:59.989Z,99214.95
2019-02-08T14:38:31.128Z,99198.43
2019-02-08T14:41:16.229Z,99198.43
2019-02-08T14:43:46.287Z,99182.73
2019-02-08T14:46:16.288Z,99187.47
2019-02-08T14:48:52.461Z,99163.61
2019-02-08T14:51:28.673Z,99163.61
2019-02-08T14:54:01.528Z,99173.08
2019-02-08T14:56:38.344Z,99136.53
2019-02-08T14:59:06.280Z,99136.53
2019-02-08T15:01:33.958Z,99137.63
2019-02-08T15:04:20.432Z,99138.95
2019-02-08T15:06:48.570Z,99138.95
2019-02-08T15:09:16.365Z,99130.52
2019-02-08T15:12:02.852Z,99144.97
2019-02-08T15:14:30.563Z,99136.41
2019-02-08T15:17:17.064Z,99115.88
2019-02-08T15:19:46.393Z,99115.88
2019-02-08T15:22:14.215Z,99103.80
2019-02-08T15:25:00.723Z,99103.80
2019-02-08T15:27:28.545Z,99109.94
2019-02-08T15:30:15.030Z,99081.81
2019-02-08T15:33:01.518Z,99104.11
2019-02-08T15:35:48.912Z,99104.11
2019-02-08T15:38:35.384Z,99078.53
2019-02-08T15:41:21.901Z,99078.53
2019-02-08T15:43:51.965Z,99075.18
2019-02-08T15:46:38.435Z,99076.75
2019-02-08T15:52:11.250Z,99071.37
2019-02-08T15:57:48.422Z,99068.72
2019-02-08T16:03:21.219Z,99067.64
2019-02-08T16:05:49.092Z,99068.97
2019-02-08T16:08:35.518Z,99072.13
2019-02-08T16:11:03.645Z,99072.13
2019-02-08T16:13:31.415Z,99063.30
2019-02-08T16:16:03.975Z,99058.00
2019-02-08T16:18:31.627Z,99046.20
2019-02-08T16:20:59.287Z,99046.20
2019-02-08T16:23:30.085Z,99038.84
2019-02-08T16:25:57.727Z,99037.91
2019-02-08T16:28:25.411Z,99037.91
2019-02-08T16:30:53.511Z,99026.33
2019-02-08T16:33:22.265Z,99020.66
2019-02-08T16:35:49.936Z,99020.66
2019-02-08T16:38:17.573Z,99020.55
2019-02-08T16:40:48.323Z,99016.05
2019-02-08T16:43:17.681Z,99022.56
2019-02-08T16:45:45.270Z,99017.26
2019-02-08T16:48:12.933Z,99017.26
2019-02-08T16:50:40.923Z,99020.61
2019-02-08T16:53:08.571Z,99000.36
2019-02-08T16:55:36.665Z,99000.36
2019-02-08T16:58:04.733Z,99010.97
2019-02-08T17:00:32.404Z,98997.23
2019-02-08T17:03:00.068Z,98997.23
2019-02-08T17:05:28.107Z,99001.21
2019-02-08T17:07:57.665Z,99002.53
2019-02-08T17:10:31.634Z,99003.29
2019-02-08T17:13:00.971Z,99002.21
2019-02-08T17:15:28.580Z,99002.21
2019-02-08T17:17:56.702Z,98980.05
2019-02-08T17:23:31.247Z,98975.50
2019-02-08T17:29:18.667Z,98948.77
2019-02-08T17:31:38.649Z,98950.45
2019-02-08T17:34:08.405Z,98939.95
2019-02-08T17:36:36.070Z,98941.28
2019-02-08T17:39:07.103Z,98941.28
2019-02-08T17:41:35.542Z,98939.48
2019-02-08T17:44:05.954Z,98938.28
2019-02-08T17:46:33.627Z,98932.13
2019-02-08T17:49:03.338Z,98939.73
2019-02-08T17:51:31.194Z,98926.00
2019-02-08T17:54:01.014Z,98921.67
2019-02-08T17:56:33.647Z,98908.59
2019-02-08T17:59:04.303Z,98913.55
2019-02-08T18:01:32.740Z,98913.55
2019-02-08T18:04:04.520Z,98902.81
2019-02-08T18:12:00.835Z,98900.80
2019-02-08T18:14:47.312Z,98902.56
2019-02-08T18:17:33.797Z,98902.56
2019-02-08T18:22:54.379Z,98900.76
2019-02-08T18:25:22.003Z,98908.84
2019-02-08T18:28:11.312Z,98906.83
2019-02-08T18:30:39.864Z,98906.83
2019-02-08T18:33:26.360Z,98899.47
2019-02-08T18:39:04.256Z,98899.05
2019-02-08T18:41:36.917Z,98899.05
2019-02-08T18:44:23.401Z,98901.83
2019-02-08T18:46:51.008Z,98880.48
2019-02-08T18:49:37.912Z,98885.78
2019-02-08T18:52:05.616Z,98879.16
2019-02-08T18:54:52.120Z,98873.56
2019-02-08T18:57:38.612Z,98864.37
2019-02-08T19:00:25.218Z,98840.70
2019-02-08T19:03:13.981Z,98850.34
2019-02-08T19:05:48.070Z,98844.87
2019-02-08T19:08:34.508Z,98843.54
2019-02-08T19:11:20.992Z,98840.63
2019-02-08T19:16:55.420Z,98846.63
2019-02-08T19:22:28.237Z,98836.36
2019-02-08T19:25:37.334Z,98819.75
2019-02-08T19:28:02.842Z,98819.75
2019-02-08T19:33:36.114Z,98812.55
2019-02-08T19:36:06.270Z,98803.38
2019-02-08T19:38:52.702Z,98809.97
2019-02-08T19:41:20.431Z,98792.71
2019-02-08T19:46:40.329Z,98784.75
2019-02-08T19:49:26.764Z,98789.72
2019-02-08T19:52:13.271Z,98787.06
2019-02-08T19:54:40.987Z,98788.39
2019-02-08T19:57:27.463Z,98788.39
2019-02-08T19:59:55.163Z,98782.23
2019-02-08T20:02:41.586Z,98779.45
2019-02-08T20:05:28.061Z,98767.16
2019-02-08T20:08:14.539Z,98756.17
2019-02-08T20:10:42.214Z,98756.17
2019-02-08T20:13:30.287Z,98765.62
2019-02-08T20:18:54.883Z,98767.36
2019-02-08T20:21:25.213Z,98767.36
2019-02-08T20:24:13.305Z,98754.70
2019-02-08T20:29:34.178Z,98746.70
2019-02-08T20:32:01.829Z,98737.97
2019-02-08T20:34:48.294Z,98730.35
2019-02-08T20:37:15.934Z,98733.83
2019-02-08T20:40:04.642Z,98720.90
2019-02-08T20:45:33.053Z,98708.19
2019-02-08T20:48:25.483Z,98709.59
2019-02-08T20:51:11.999Z,98701.98
2019-02-08T20:53:53.586Z,98701.98
2019-02-08T20:59:00.525Z,98697.44
2019-02-08T21:04:52.141Z,98700.30
2019-02-08T21:07:19.823Z,98700.30
2019-02-08T21:09:47.535Z,98685.53
2019-02-08T21:12:34.198Z,98676.25
2019-02-08T21:15:20.634Z,98655.73
2019-02-08T21:18:19.178Z,98654.74
2019-02-08T21:20:55.268Z,98636.98
2019-02-08T21:23:41.795Z,98638.95
2019-02-08T21:26:09.476Z,98638.95
2019-02-08T21:28:49.060Z,98636.25
2019-02-08T21:31:25.226Z,98623.59
2019-02-08T21:33:53.166Z,98622.31
2019-02-08T21:36:25.841Z,98622.71
2019-02-08T21:38:53.498Z,98619.88
2019-02-08T21:41:40.444Z,98619.88
2019-02-08T21:47:03.295Z,98601.09
2019-02-08T21:52:36.071Z,98597.45
2019-02-08T21:55:03.775Z,98597.45
2019-02-08T22:00:38.246Z,98586.42
2019-02-08T22:05:58.084Z,98562.00
2019-02-08T22:08:58.487Z,98529.04
2019-02-08T22:11:35.675Z,98518.94
2019-02-08T22:14:03.438Z,98539.45
2019-02-08T22:16:49.911Z,98529.17
2019-02-08T22:19:17.641Z,98529.17
2019-02-08T22:24:38.508Z,98539.38
2019-02-08T22:27:25.021Z,98539.38
2019-02-08T22:30:11.488Z,98517.65
2019-02-08T22:35:31.386Z,98529.72
2019-02-08T22:37:59.099Z,98531.22
2019-02-08T22:40:47.861Z,98533.53
2019-02-08T22:43:15.722Z,98533.53
2019-02-08T22:46:02.179Z,98529.55
2019-02-08T22:48:32.812Z,98529.55
2019-02-08T22:51:19.284Z,98522.27
2019-02-08T22:53:49.230Z,98527.92
2019-02-08T22:56:35.685Z,98525.27
2019-02-08T23:01:56.374Z,98520.00
2019-02-08T23:04:45.550Z,98494.45
2019-02-08T23:07:32.018Z,98494.45
2019-02-08T23:10:00.017Z,98514.35
2019-02-08T23:12:34.971Z,98511.77
2019-02-08T23:15:04.880Z,98511.77
2019-02-08T23:17:34.239Z,98516.63
2019-02-08T23:20:20.755Z,98511.02
2019-02-08T23:22:48.336Z,98506.26
2019-02-08T23:25:34.811Z,98512.28
2019-02-08T23:31:09.266Z,98498.56
2019-02-08T23:33:55.723Z,98501.05
2019-02-08T23:36:42.241Z,98506.73
2019-02-08T23:39:24.061Z,98482.67
2019-02-08T23:44:33.011Z,98495.95
2019-02-08T23:47:03.238Z,98482.20
2019-02-08T23:49:49.706Z,98479.54
2019-02-08T23:52:17.408Z,98468.58
2019-02-08T23:55:00.055Z,98468.58
2019-02-08T23:57:36.299Z,98473.55
